Latest Coastal Weather Observations for Bedout Island

IDW60701

Issued at 1:35 pm WST Saturday 19 April 2014 (issued every 10 minutes, with the page automatically refreshed every 10 minutes)

About coastal observations | Map of coastal stations | Coastal observations for WA | Marine services | Other Formats
Station Details ID: 004100 Name: BEDOUT ISLAND Lat: -19.59 Lon: 119.10 Height: 8.6 m
Data from the previous 72 hours. | See also: Recent months for locations in Western Australia
Date/Time
WST
Temp

°C
Wind Pressure Rain
since 9am
mm
Weather Cloud Vis
km
Sea
Height
m
Swell
Dir
 
Speed
knots
Gust
knots
hPa Trend Height
m
Period
s
Dir
19/01:30pm 31.3 E 9 10 1010.8 - - - - - - - - -
19/01:00pm 31.6 E 10 12 1011.4 - - - - - - - - -
19/12:30pm 31.9 ESE 10 13 1011.8 - - - - - - - - -
19/12:00pm 31.8 ESE 11 12 1012.2 - - - - - - - - -
19/11:30am 32.1 ESE 11 13 1012.7 - - - - - - - - -
19/11:00am 32.5 ESE 13 15 1013.0 - - - - - - - - -
19/10:30am 32.0 SE 15 16 1013.3 - - - - - - - - -
19/10:00am 31.6 SE 14 17 1013.7 - - - - - - - - -
19/09:30am 31.1 SSE 15 17 1013.9 - - - - - - - - -
19/09:00am 30.4 SSE 16 17 1013.8 - - - - - - - - -
19/08:30am 29.8 SSE 15 18 1014.0 - - - - - - - - -
19/08:00am 29.4 S 14 16 1013.9 - - - - - - - - -
19/07:30am 28.5 S 11 14 1013.7 - - - - - - - - -
19/07:00am 27.0 S 10 12 1013.6 - - - - - - - - -
19/06:30am 26.2 S 12 15 1013.3 - - - - - - - - -
19/06:00am 26.0 S 13 15 1013.0 - - - - - - - - -
19/05:30am 25.9 S 14 17 1013.0 - - - - - - - - -
19/05:00am 25.7 SSE 14 17 1012.8 - - - - - - - - -
19/04:30am 25.6 SSE 14 15 1012.9 - - - - - - - - -
19/04:00am 25.6 S 13 15 1012.9 - - - - - - - - -
19/03:30am 26.0 S 11 13 1013.1 - - - - - - - - -
19/03:00am 26.2 S 11 14 1012.9 - - - - - - - - -
19/02:30am 26.7 S 12 14 1013.2 - - - - - - - - -
19/02:00am 26.7 S 9 11 1013.2 - - - - - - - - -
19/01:30am 26.5 S 10 11 1013.2 - - - - - - - - -
19/01:00am 26.6 S 9 10 1013.4 - - - - - - - - -
19/12:30am 27.5 S 9 11 1013.5 - - - - - - - - -
19/12:00am 27.0 S 8 10 1013.6 - - - - - - - - -
 
Date/Time
WST
Temp

°C
Wind Pressure Rain
since 9am
mm
Weather Cloud Vis
km
Sea
Height
m
Swell
Dir
 
Speed
knots
Gust
knots
hPa Trend Height
m
Period
s
Dir
18/11:30pm 27.3 WSW 4 8 1013.9 - - - - - - - - -
18/11:00pm 26.5 CALM 0 3 1013.8 - - - - - - - - -
18/10:30pm 27.0 NNW 7 8 1013.8 - - - - - - - - -
18/10:00pm 27.0 NNW 1 7 1013.9 - - - - - - - - -
18/09:30pm 27.1 NNW 8 9 1014.0 - - - - - - - - -
18/09:00pm 26.8 NNW 7 9 1013.9 - - - - - - - - -
18/08:30pm 27.0 NNW 7 9 1013.9 - - - - - - - - -
18/08:00pm 27.2 N 8 9 1013.6 - - - - - - - - -
18/07:30pm 27.4 N 9 9 1013.4 - - - - - - - - -
18/07:00pm 27.3 N 8 9 1013.1 - - - - - - - - -
18/06:30pm 27.4 N 8 9 1012.8 - - - - - - - - -
18/06:00pm 27.8 N 7 8 1012.4 - - - - - - - - -
18/05:30pm 28.9 N 9 9 1012.0 - - - - - - - - -
18/05:00pm 29.9 NNE 9 10 1011.9 - - - - - - - - -
18/04:30pm 30.7 NNE 9 10 1011.7 - - - - - - - - -
18/04:00pm 31.5 NE 9 11 1011.7 - - - - - - - - -
18/03:30pm 31.5 ENE 10 11 1011.8 - - - - - - - - -
18/03:00pm 31.7 E 11 12 1011.6 - - - - - - - - -
18/02:30pm 31.9 E 12 13 1011.8 - - - - - - - - -
18/02:00pm 32.0 E 13 15 1012.0 - - - - - - - - -
18/01:30pm 31.9 E 13 15 1012.2 - - - - - - - - -
18/01:00pm 31.4 E 15 17 1012.4 - - - - - - - - -
18/12:30pm 31.6 E 14 16 1012.8 - - - - - - - - -
18/12:00pm 31.5 E 15 17 1013.0 - - - - - - - - -
18/11:30am 31.3 E 17 19 1013.3 - - - - - - - - -
18/11:00am 30.9 E 16 18 1013.7 - - - - - - - - -
18/10:30am 31.1 E 17 20 1013.9 - - - - - - - - -
18/10:00am 30.8 E 17 19 1014.1 - - - - - - - - -
18/09:30am 30.6 E 17 20 1014.2 - - - - - - - - -
18/09:00am 29.8 E 17 19 1014.0 - - - - - - - - -
18/08:30am 29.1 ESE 18 20 1014.0 - - - - - - - - -
18/08:00am 28.8 ESE 18 21 1013.8 - - - - - - - - -
18/07:30am 28.4 ESE 19 21 1013.8 - - - - - - - - -
18/07:00am 27.7 SE 17 20 1013.7 - - - - - - - - -
18/06:30am 26.4 SSE 15 19 1013.6 - - - - - - - - -
18/06:00am 26.5 S 17 20 1013.5 - - - - - - - - -
18/05:30am 26.2 S 15 17 1013.4 - - - - - - - - -
18/05:00am 26.5 S 15 17 1013.5 - - - - - - - - -
18/04:30am 26.3 S 15 16 1013.4 - - - - - - - - -
18/04:00am 26.0 S 13 16 1013.5 - - - - - - - - -
18/03:30am 26.5 S 14 16 1013.4 - - - - - - - - -
18/03:00am 26.8 S 13 15 1013.0 - - - - - - - - -
18/02:30am 26.6 S 13 14 1013.1 - - - - - - - - -
18/02:00am 26.9 S 12 13 1013.3 - - - - - - - - -
18/01:30am 26.6 S 12 13 1013.4 - - - - - - - - -
18/01:00am 26.6 S 10 12 1013.7 - - - - - - - - -
18/12:30am 26.6 S 10 12 1013.8 - - - - - - - - -
18/12:00am 27.0 S 8 10 1013.8 - - - - - - - - -
 
Date/Time
WST
Temp

°C
Wind Pressure Rain
since 9am
mm
Weather Cloud Vis
km
Sea
Height
m
Swell
Dir
 
Speed
knots
Gust
knots
hPa Trend Height
m
Period
s
Dir
17/11:30pm 26.6 S 7 8 1014.0 - - - - - - - - -
17/11:00pm 27.4 N 4 4 1014.1 - - - - - - - - -
17/10:30pm 27.5 CALM 0 3 1014.0 - - - - - - - - -
17/10:00pm 27.3 N 3 4 1013.8 - - - - - - - - -
17/09:30pm 27.2 N 4 5 1013.8 - - - - - - - - -
17/09:00pm 27.2 N 5 7 1013.7 - - - - - - - - -
17/08:30pm 27.0 N 8 8 1013.4 - - - - - - - - -
17/08:00pm 26.7 N 7 8 1013.4 - - - - - - - - -
17/07:30pm 26.9 N 8 9 1013.1 - - - - - - - - -
17/07:00pm 27.4 NNE 9 11 1012.8 - - - - - - - - -
17/06:30pm 27.7 NNE 10 11 1012.6 - - - - - - - - -
17/06:00pm 27.9 NNE 9 10 1012.2 - - - - - - - - -
17/05:30pm 28.9 NNE 10 11 1012.1 - - - - - - - - -
17/05:00pm 29.9 NNE 11 13 1012.0 - - - - - - - - -
17/04:30pm 30.7 NE 13 14 1011.7 - - - - - - - - -
17/04:00pm 31.1 NE 14 16 1011.6 - - - - - - - - -
17/03:30pm 31.5 ENE 16 18 1011.4 - - - - - - - - -
17/03:00pm 31.7 ENE 16 18 1011.4 - - - - - - - - -
17/02:30pm 31.8 ENE 16 18 1011.6 - - - - - - - - -
17/02:00pm 31.8 E 15 17 1011.9 - - - - - - - - -
17/01:30pm 31.8 E 15 17 1012.2 - - - - - - - - -
17/01:00pm 31.6 E 15 18 1012.6 - - - - - - - - -
17/12:30pm 31.6 E 16 19 1012.9 - - - - - - - - -
17/12:00pm 31.4 E 17 19 1013.3 - - - - - - - - -
17/11:30am 31.3 E 17 20 1013.8 - - - - - - - - -
17/11:00am 31.0 E 17 19 1014.0 - - - - - - - - -
17/10:30am 30.7 E 16 18 1014.4 - - - - - - - - -
17/10:00am 30.2 E 16 18 1014.6 - - - - - - - - -
17/09:30am 29.9 ESE 17 20 1014.4 - - - - - - - - -
17/09:00am 29.6 ESE 18 20 1014.3 - - - - - - - - -
17/08:30am 29.3 ESE 18 21 1014.2 - - - - - - - - -
17/08:00am 28.6 ESE 17 19 1014.1 - - - - - - - - -
17/07:30am 28.1 ESE 17 19 1013.8 - - - - - - - - -
17/07:00am 27.7 ESE 18 20 1013.6 - - - - - - - - -
17/06:30am 26.6 SE 15 17 1013.4 - - - - - - - - -
17/06:00am 26.1 SE 13 15 1013.2 - - - - - - - - -
17/05:30am 26.3 SSE 14 16 1013.0 - - - - - - - - -
17/05:00am 26.3 SSE 13 16 1013.0 - - - - - - - - -
17/04:30am 26.8 SSE 13 16 1012.9 - - - - - - - - -
17/04:00am 26.4 S 15 17 1012.8 - - - - - - - - -
17/03:30am 26.6 S 15 17 1012.6 - - - - - - - - -
17/03:00am 26.5 S 15 17 1012.5 - - - - - - - - -
17/02:30am 26.6 S 15 17 1012.7 - - - - - - - - -
17/02:00am 26.7 S 14 16 1012.8 - - - - - - - - -
17/01:30am 26.8 S 13 16 1012.8 - - - - - - - - -
17/01:00am 26.8 S 13 15 1012.9 - - - - - - - - -
17/12:30am 27.0 S 12 14 1013.1 - - - - - - - - -
17/12:00am 27.2 SSW 9 11 1013.2 - - - - - - - - -
 
Date/Time
WST
Temp

°C
Wind Pressure Rain
since 9am
mm
Weather Cloud Vis
km
Sea
Height
m
Swell
Dir
 
Speed
knots
Gust
knots
hPa Trend Height
m
Period
s
Dir
16/11:30pm 26.9 S 9 10 1013.2 - - - - - - - - -
16/11:00pm 26.3 S 7 8 1013.4 - - - - - - - - -
16/10:30pm 27.3 N 3 5 1013.5 - - - - - - - - -
16/10:00pm 27.2 CALM 0 0 1013.5 - - - - - - - - -
16/09:30pm 26.9 CALM 0 2 1013.4 - - - - - - - - -
16/09:00pm 26.7 N 1 3 1013.0 - - - - - - - - -
16/08:30pm 26.7 N 3 4 1012.7 - - - - - - - - -
16/08:00pm 27.2 N 5 5 1012.7 - - - - - - - - -
16/07:30pm 27.1 N 4 6 1012.4 - - - - - - - - -
16/07:00pm 26.6 N 6 7 1012.1 - - - - - - - - -
16/06:30pm 27.4 NNE 8 10 1011.8 - - - - - - - - -
16/06:00pm 28.0 NNE 11 14 1011.3 - - - - - - - - -
16/05:30pm 28.8 NE 12 15 1011.2 - - - - - - - - -
16/05:00pm 29.6 NE 14 16 1011.1 - - - - - - - - -
16/04:30pm 30.4 NE 13 15 1011.0 - - - - - - - - -
16/04:00pm 31.2 NE 13 14 1011.0 - - - - - - - - -
16/03:30pm 31.5 ENE 13 15 1011.1 - - - - - - - - -
16/03:00pm 31.9 ENE 14 16 1011.1 - - - - - - - - -
16/02:30pm 31.8 ENE 16 18 1011.4 - - - - - - - - -
16/02:00pm 31.7 E 18 20 1011.6 - - - - - - - - -

Other Formats:

Comma delimited format used in spreadsheet applications
http://www.bom.gov.au/fwo/IDW60701/IDW60701.94310.axf

JavaScript Object Notation format (JSON) in row-major order
http://www.bom.gov.au/fwo/IDW60701/IDW60701.94310.json